Time;durP1;ratioP1;P1;durP2;ratioP2;P2;SDS_P1;SDS_P2;PMS_P1;PMS_P2;Temp;Humidity;BMP_temperature;BMP_pressure;BME280_temperature;BME280_humidity;BME280_pressure;Samples;Min_cycle;Max_cycle;Signal;HPM_P1;HPM_P2
2023/01/08 00:00:54;;;;;;;62.48;34.15;;;;;;;4.43;98.54;99078.64;1748153;82;21481;-41
2023/01/08 00:03:20;;;;;;;58.95;33.35;;;;;;;4.39;98.86;99084.02;1748221;81;21528;-39
2023/01/08 00:05:46;;;;;;;62.35;34.15;;;;;;;4.36;98.79;99081.52;1748119;81;20999;-39
2023/01/08 00:08:12;;;;;;;79.95;40.40;;;;;;;4.35;98.75;99079.83;1748204;81;21506;-43
2023/01/08 00:10:38;;;;;;;79.35;46.20;;;;;;;4.32;98.67;99079.46;1748104;81;21469;-39
2023/01/08 00:13:06;;;;;;;77.75;46.18;;;;;;;4.32;98.68;99072.11;1748148;81;20987;-43
2023/01/08 00:15:34;;;;;;;;;;;;;;;4.27;98.63;99072.70;1750805;81;20999;-39
2023/01/08 00:18:01;;;;;;;80.95;45.95;;;;;;;4.23;98.48;99063.69;1747948;81;20116;-40
2023/01/08 00:20:27;;;;;;;78.35;43.00;;;;;;;4.19;98.52;99062.09;1748155;81;21003;-41
2023/01/08 00:22:53;;;;;;;66.43;37.70;;;;;;;4.18;98.58;99066.05;1748407;82;20987;-39
2023/01/08 00:25:20;;;;;;;58.33;33.73;;;;;;;4.08;98.41;99068.57;1748155;81;21031;-41
2023/01/08 00:27:46;;;;;;;58.60;32.48;;;;;;;4.09;98.64;99062.45;1748035;81;20999;-40
2023/01/08 00:30:12;;;;;;;59.20;32.33;;;;;;;4.00;98.87;99051.88;1748022;81;20972;-42
2023/01/08 00:32:38;;;;;;;51.33;29.85;;;;;;;4.07;98.67;99052.08;1748299;81;21835;-39
2023/01/08 00:35:05;;;;;;;54.67;29.67;;;;;;;4.02;98.69;99052.25;1748107;81;20999;-41
2023/01/08 00:37:31;;;;;;;52.00;27.80;;;;;;;4.03;98.50;99051.33;1748298;81;20996;-41
2023/01/08 00:39:57;;;;;;;54.45;28.32;;;;;;;4.07;98.72;99046.03;1747996;81;21489;-39
2023/01/08 00:42:22;;;;;;;56.90;28.20;;;;;;;4.04;98.77;99035.29;1748064;81;21000;-43
2023/01/08 00:44:48;;;;;;;52.73;28.32;;;;;;;4.06;98.67;99021.77;1748079;81;20995;-42
2023/01/08 00:47:14;;;;;;;47.93;25.50;;;;;;;4.09;98.41;99014.30;1748072;81;21050;-43
2023/01/08 00:49:40;;;;;;;46.88;25.92;;;;;;;4.07;98.20;99015.66;1748025;81;20968;-40
2023/01/08 00:52:06;;;;;;;39.60;22.85;;;;;;;4.09;97.87;99023.41;1748325;81;21031;-41
2023/01/08 00:54:32;;;;;;;44.67;23.47;;;;;;;4.02;97.69;99021.45;1748046;81;21485;-40
2023/01/08 00:56:58;;;;;;;42.70;23.15;;;;;;;4.03;97.55;99019.27;1759404;80;20999;-40
2023/01/08 00:59:24;;;;;;;39.58;23.25;;;;;;;3.97;97.68;99015.58;1761403;80;20968;-42
2023/01/08 01:01:53;;;;;;;41.58;23.02;;;;;;;3.86;98.06;99015.92;1761411;80;21030;-43
2023/01/08 01:04:17;;;;;;;43.55;23.40;;;;;;;3.90;98.08;99019.28;1761169;81;21026;-39
2023/01/08 01:06:43;;;;;;;39.48;22.67;;;;;;;3.87;98.09;99013.70;1761491;81;21493;-42
2023/01/08 01:09:10;;;;;;;38.50;22.02;;;;;;;3.89;98.06;99010.59;1761377;81;21029;-42
2023/01/08 01:11:36;;;;;;;38.90;21.65;;;;;;;3.84;97.99;99001.66;1761810;81;21096;-43
2023/01/08 01:14:02;;;;;;;40.58;22.85;;;;;;;3.77;98.43;98999.31;1761474;81;21480;-41
2023/01/08 01:16:28;;;;;;;39.83;20.80;;;;;;;3.81;98.28;99000.45;1761490;81;20999;-41
2023/01/08 01:18:56;;;;;;;38.30;21.27;;;;;;;3.81;98.33;98992.65;1761396;81;21002;-40
2023/01/08 01:21:29;;;;;;;39.10;21.20;;;;;;;3.84;98.28;98997.76;1761377;80;21473;-42
2023/01/08 01:23:59;;;;;;;37.23;20.80;;;;;;;3.84;98.10;98994.31;1761424;81;20963;-41
2023/01/08 01:26:26;;;;;;;32.40;19.00;;;;;;;3.80;98.24;98995.30;1761356;81;21345;-43
2023/01/08 01:28:54;;;;;;;31.05;19.50;;;;;;;3.75;98.28;98992.86;1761510;81;21041;-39
2023/01/08 01:31:21;;;;;;;37.28;19.45;;;;;;;3.72;98.31;98995.55;1761349;81;21460;-42
2023/01/08 01:33:47;;;;;;;31.55;18.92;;;;;;;3.72;98.22;98990.80;1761462;81;21034;-39
2023/01/08 01:36:15;;;;;;;34.95;19.35;;;;;;;3.67;98.36;98984.89;1761344;81;20963;-41
2023/01/08 01:38:47;;;;;;;37.93;19.45;;;;;;;3.70;98.36;98984.34;1761379;81;20971;-41
2023/01/08 01:41:27;;;;;;;36.13;20.05;;;;;;;3.71;98.52;98979.56;1761335;80;21007;-43
2023/01/08 01:43:55;;;;;;;33.85;18.32;;;;;;;3.69;98.61;98977.89;1759264;81;20951;-38
2023/01/08 01:46:39;;;;;;;34.73;18.77;;;;;;;3.59;98.71;98982.55;1761384;81;21054;-45
2023/01/08 01:49:13;;;;;;;36.63;20.10;;;;;;;3.61;99.24;98983.34;1761179;81;21066;-42
2023/01/08 01:51:43;;;;;;;32.98;19.35;;;;;;;3.67;98.96;98987.50;1761342;81;20971;-41
2023/01/08 01:54:12;;;;;;;33.08;19.80;;;;;;;3.65;99.22;98983.64;1761406;81;20975;-41
2023/01/08 01:56:38;;;;;;;32.50;19.77;;;;;;;3.62;99.37;98983.73;1753390;80;21067;-42
2023/01/08 01:59:04;;;;;;;37.63;20.92;;;;;;;3.48;99.87;98983.34;1747966;81;20972;-39
2023/01/08 02:01:31;;;;;;;35.88;21.15;;;;;;;3.46;100.00;98980.78;1748020;81;21023;-40
2023/01/08 02:03:57;;;;;;;43.93;21.13;;;;;;;3.50;100.00;98979.78;1748275;81;21012;-38
2023/01/08 02:06:49;;;;;;;40.10;20.88;;;;;;;3.53;100.00;98982.30;1748095;81;20996;-38
2023/01/08 02:09:40;;;;;;;40.00;22.13;;;;;;;3.48;100.00;98982.88;1748083;81;21517;-39
2023/01/08 02:12:20;;;;;;;41.75;22.52;;;;;;;3.51;100.00;98984.52;1748202;81;21580;-42
2023/01/08 02:15:10;;;;;;;35.52;20.17;;;;;;;3.41;100.00;98981.38;1742711;82;21000;-42
2023/01/08 02:17:55;;;;;;;43.80;22.10;;;;;;;3.37;100.00;98984.52;1748087;81;21000;-39
2023/01/08 02:20:50;;;;;;;35.63;20.52;;;;;;;3.37;100.00;98974.12;1748025;82;21011;-43
2023/01/08 02:23:26;;;;;;;36.30;21.15;;;;;;;3.33;100.00;98976.42;1725081;81;21442;-42
2023/01/08 02:26:29;;;;;;;37.70;21.80;;;;;;;3.28;100.00;98965.31;1748310;82;21461;-40
2023/01/08 02:29:15;;;;;;;45.67;23.05;;;;;;;3.29;100.00;98957.89;1748125;81;21587;-40
2023/01/08 02:31:43;;;;;;;42.75;23.70;;;;;;;3.30;100.00;98958.77;1747255;81;20992;-41
2023/01/08 02:34:10;;;;;;;42.48;22.87;;;;;;;3.41;100.00;98959.28;1748210;81;20979;-43
2023/01/08 02:36:43;;;;;;;39.33;21.50;;;;;;;3.48;100.00;98959.94;1748047;81;21039;-40
2023/01/08 02:39:41;;;;;;;43.78;23.18;;;;;;;3.51;100.00;98954.20;1746535;81;20987;-39
2023/01/08 02:42:45;;;;;;;44.33;23.22;;;;;;;3.51;100.00;98955.92;1706587;78;21087;-41
2023/01/08 02:45:36;;;;;;;39.78;22.13;;;;;;;3.59;100.00;98959.14;1666647;86;21503;-42
2023/01/08 02:48:16;;;;;;;41.65;21.80;;;;;;;3.50;100.00;98956.38;1684138;85;21015;-43
2023/01/08 02:51:09;;;;;;;40.95;22.55;;;;;;;3.40;100.00;98953.23;1678277;85;21031;-43
